Time;durP1;ratioP1;P1;durP2;ratioP2;P2;SDS_P1;SDS_P2;PMS_P1;PMS_P2;Temp;Humidity;BMP_temperature;BMP_pressure;BME280_temperature;BME280_humidity;BME280_pressure;Samples;Min_cycle;Max_cycle;Signal;HPM_P1;HPM_P2
2023/04/03 00:07:20;;;;;;;0.30;0.30;;;;;;;17.00;42.11;102812.00;20740479;28;20049;-83
2023/04/03 00:17:22;;;;;;;0.60;0.40;;;;;;;17.33;42.16;102867.66;20738793;28;20482;-83
2023/04/03 00:27:24;;;;;;;0.40;0.40;;;;;;;17.32;42.05;102872.13;20739245;28;20048;-83
2023/04/03 00:37:26;;;;;;;0.60;0.50;;;;;;;17.15;42.01;102847.97;20752852;28;20048;-84
2023/04/03 00:47:28;;;;;;;0.20;0.20;;;;;;;17.26;41.99;102880.56;20738567;28;20069;-84
2023/04/03 00:57:31;;;;;;;0.55;0.40;;;;;;;17.30;42.02;102886.66;20737009;28;20038;-84
2023/04/03 01:07:36;;;;;;;1.02;0.50;;;;;;;17.19;42.04;102882.69;20741617;28;20100;-82
2023/04/03 01:17:58;;;;;;;0.45;0.40;;;;;;;17.28;42.13;102894.81;20748583;28;20117;-83
2023/04/03 01:28:00;;;;;;;0.40;0.30;;;;;;;17.21;42.15;102894.25;20766466;28;20576;-83
2023/04/03 01:38:02;;;;;;;0.30;0.30;;;;;;;17.25;42.07;102905.75;20767120;28;20052;-83
2023/04/03 01:48:04;;;;;;;0.60;0.40;;;;;;;17.14;42.11;102895.53;20754038;28;20122;-83
2023/04/03 01:58:06;;;;;;;0.63;0.40;;;;;;;17.19;42.05;102895.31;20765709;28;20076;-83
2023/04/03 02:08:08;;;;;;;0.50;0.30;;;;;;;17.19;41.96;102901.53;20760426;28;20049;-83
2023/04/03 02:18:09;;;;;;;0.65;0.40;;;;;;;17.25;42.06;102913.81;20764466;28;20092;-83
2023/04/03 02:28:11;;;;;;;0.88;0.40;;;;;;;17.29;42.23;102922.59;20748293;28;20197;-83
2023/04/03 02:38:14;;;;;;;0.52;0.30;;;;;;;17.33;42.12;102932.25;20763849;28;20116;-83
2023/04/03 02:48:16;;;;;;;1.05;0.60;;;;;;;17.30;42.05;102935.13;20746684;28;20394;-83
2023/04/03 02:58:18;;;;;;;0.82;0.50;;;;;;;17.29;42.11;102925.31;20760935;28;20041;-83
2023/04/03 03:08:21;;;;;;;0.30;0.30;;;;;;;17.23;41.88;102915.72;20745583;28;20513;-83
2023/04/03 03:18:22;;;;;;;0.60;0.40;;;;;;;17.34;41.74;102928.59;20746495;28;20117;-83
2023/04/03 03:28:24;;;;;;;0.45;0.30;;;;;;;17.48;41.66;102926.03;20731514;28;20049;-83
2023/04/03 03:38:26;;;;;;;0.30;0.30;;;;;;;17.54;41.52;102941.84;20742083;28;20514;-83
2023/04/03 03:48:29;;;;;;;0.43;0.30;;;;;;;17.59;41.47;102962.25;20739836;28;20050;-83
2023/04/03 03:58:32;;;;;;;1.40;0.60;;;;;;;17.39;41.48;102923.84;20751937;28;20045;-83
2023/04/03 04:08:34;;;;;;;0.95;0.50;;;;;;;17.64;41.10;102965.56;20713677;28;20432;-83
2023/04/03 04:18:37;;;;;;;2.10;0.60;;;;;;;17.71;41.10;102972.38;20726700;28;20054;-77
2023/04/03 04:28:39;;;;;;;1.73;0.50;;;;;;;17.85;42.03;102978.81;20721899;28;20540;-83
2023/04/03 04:38:41;;;;;;;0.63;0.40;;;;;;;17.90;45.39;102990.22;20724246;28;20142;-83
2023/04/03 04:48:44;;;;;;;1.27;0.90;;;;;;;17.96;46.46;103006.91;20731704;28;20056;-84
2023/04/03 04:58:46;;;;;;;2.22;0.75;;;;;;;18.07;46.61;103017.13;20739894;28;20478;-85
2023/04/03 05:08:49;;;;;;;1.40;0.57;;;;;;;18.12;46.52;103011.47;20745832;28;20041;-85
2023/04/03 05:18:52;;;;;;;1.00;0.50;;;;;;;17.81;46.26;102962.84;20752901;28;20046;-85
2023/04/03 05:28:56;;;;;;;0.50;0.50;;;;;;;18.11;46.04;103021.38;20732233;28;20053;-82
2023/04/03 05:38:58;;;;;;;2.10;0.50;;;;;;;18.15;46.13;103032.88;20736781;28;20104;-81
2023/04/03 05:49:00;;;;;;;1.00;0.60;;;;;;;18.17;46.19;103036.34;20728559;28;20049;-80
2023/04/03 05:59:05;;;;;;;1.80;0.60;;;;;;;18.18;46.23;103043.47;20723161;28;20394;-81
2023/04/03 06:09:07;;;;;;;0.57;0.50;;;;;;;18.10;46.22;103035.81;20702708;28;20580;-92
2023/04/03 06:19:09;;;;;;;1.35;0.60;;;;;;;18.24;46.19;103063.84;20716082;28;20045;-84
2023/04/03 06:29:14;;;;;;;1.38;0.60;;;;;;;18.25;46.21;103060.19;20743783;28;20553;-83
2023/04/03 06:39:25;;;;;;;0.93;0.55;;;;;;;18.24;46.15;103059.31;20746060;28;20072;-83
2023/04/03 06:49:26;;;;;;;1.30;0.60;;;;;;;18.30;46.18;103074.28;20736244;28;20038;-83
2023/04/03 06:59:28;;;;;;;1.92;0.73;;;;;;;18.20;46.07;103075.75;20739743;28;20081;-90
2023/04/03 07:09:30;;;;;;;1.27;0.50;;;;;;;18.37;46.15;103097.25;20730761;28;20049;-83
2023/04/03 07:19:31;;;;;;;1.15;0.40;;;;;;;18.41;46.08;103108.75;20719619;28;20057;-85
2023/04/03 07:29:35;;;;;;;1.00;0.45;;;;;;;18.41;46.08;103120.38;20705534;28;20077;-84
2023/04/03 07:39:37;;;;;;;0.60;0.45;;;;;;;18.41;45.77;103120.38;20733256;28;20116;-83
2023/04/03 07:49:40;;;;;;;1.00;0.55;;;;;;;18.42;45.76;103132.06;20723511;28;20057;-85
2023/04/03 07:59:42;;;;;;;1.00;0.63;;;;;;;18.46;45.46;103128.22;20731405;28;20042;-85
2023/04/03 08:09:44;;;;;;;1.13;0.60;;;;;;;18.38;45.18;103122.41;20728780;28;20121;-85
2023/04/03 08:19:47;;;;;;;0.95;0.47;;;;;;;18.51;44.75;103138.75;20731305;28;20534;-85
2023/04/03 08:29:49;;;;;;;0.85;0.60;;;;;;;18.54;44.78;103149.34;20717945;28;20457;-87
2023/04/03 08:39:51;;;;;;;0.98;0.43;;;;;;;18.58;44.52;103145.56;20690186;28;20057;-85
2023/04/03 08:50:02;;;;;;;1.10;0.50;;;;;;;18.62;44.48;103147.13;20700150;28;20054;-86
2023/04/03 09:00:18;;;;;;;1.25;0.60;;;;;;;18.60;44.17;103126.56;20705780;28;20041;-86
2023/04/03 09:10:24;;;;;;;0.82;0.40;;;;;;;18.58;44.20;103131.19;20694231;28;20042;-86
2023/04/03 09:20:45;;;;;;;1.20;0.55;;;;;;;18.55;44.12;103127.72;20699731;28;20045;-89
2023/04/03 09:30:46;;;;;;;0.68;0.57;;;;;;;18.52;44.04;103133.28;20711895;28;20065;-85
2023/04/03 09:41:17;;;;;;;0.60;0.30;;;;;;;18.49;43.87;103119.09;20726740;28;20048;-83
2023/04/03 09:51:19;;;;;;;0.70;0.50;;;;;;;18.45;43.59;103115.72;20722608;28;20061;-83
2023/04/03 10:01:34;;;;;;;0.47;0.32;;;;;;;18.41;43.51;103103.34;20720832;28;20437;-84
2023/04/03 10:11:36;;;;;;;1.30;0.50;;;;;;;18.37;43.44;103101.78;20723153;28;20054;-86
2023/04/03 10:22:04;;;;;;;0.57;0.40;;;;;;;18.33;43.44;103084.91;20723319;28;20054;-92
2023/04/03 10:32:16;;;;;;;0.68;0.40;;;;;;;18.29;43.47;103088.72;20730792;28;20101;-88
2023/04/03 10:42:33;;;;;;;0.73;0.50;;;;;;;18.16;43.20;103077.75;20746752;28;20046;-82
2023/04/03 10:53:15;;;;;;;0.80;0.50;;;;;;;18.13;43.14;103066.28;20740538;28;20044;-85
2023/04/03 11:03:30;;;;;;;0.50;0.32;;;;;;;18.24;43.01;103074.63;20740740;28;20434;-85
2023/04/03 11:13:43;;;;;;;0.55;0.40;;;;;;;18.17;42.67;103046.28;20750387;28;20046;-85
2023/04/03 11:23:45;;;;;;;0.70;0.40;;;;;;;18.19;42.82;103055.16;20741750;28;20499;-85
2023/04/03 11:33:58;;;;;;;0.68;0.40;;;;;;;18.18;42.81;103042.63;20749457;28;20056;-85
2023/04/03 11:44:33;;;;;;;2.63;0.80;;;;;;;18.15;42.67;103027.47;20747964;28;20116;-85
2023/04/03 11:54:45;;;;;;;0.83;0.53;;;;;;;18.16;42.70;103017.59;20746267;28;20042;-85
2023/04/03 12:05:23;;;;;;;0.63;0.30;;;;;;;18.14;42.65;103008.72;20747142;28;20112;-83
2023/04/03 12:15:49;;;;;;;0.63;0.30;;;;;;;18.11;42.50;102991.72;20745378;28;20049;-84
2023/04/03 12:25:51;;;;;;;0.43;0.30;;;;;;;18.10;42.58;102965.72;20733014;28;20101;-85
2023/04/03 12:36:11;;;;;;;0.70;0.50;;;;;;;18.09;42.45;102964.00;20743425;28;20060;-84
2023/04/03 12:46:19;;;;;;;0.30;0.30;;;;;;;18.09;42.54;102947.81;20743117;28;20054;-84
2023/04/03 12:56:27;;;;;;;1.13;0.40;;;;;;;18.09;42.46;102964.00;20742233;28;20049;-84
2023/04/03 13:06:41;;;;;;;0.40;0.30;;;;;;;18.03;42.59;102926.59;20743443;28;20049;-84
2023/04/03 13:16:56;;;;;;;0.77;0.30;;;;;;;17.71;42.57;102867.31;20743665;28;20132;-84
2023/04/03 13:26:58;;;;;;;0.73;0.30;;;;;;;18.06;42.50;102915.66;20743935;28;20398;-84
2023/04/03 13:37:03;;;;;;;0.50;0.30;;;;;;;17.94;42.47;102901.03;20756506;28;20468;-84
2023/04/03 13:47:07;;;;;;;0.88;0.30;;;;;;;18.04;42.57;102906.78;20755529;28;20056;-84
2023/04/03 13:57:15;;;;;;;0.50;0.43;;;;;;;17.89;42.28;102886.09;20757093;28;20045;-85
2023/04/03 14:07:19;;;;;;;0.45;0.30;;;;;;;17.95;42.39;102880.34;20754883;28;20441;-84
2023/04/03 14:17:24;;;;;;;0.30;0.30;;;;;;;18.02;42.28;102887.13;20754128;28;20073;-85
2023/04/03 14:27:29;;;;;;;0.30;0.30;;;;;;;17.96;42.30;102874.00;20754393;28;20056;-85
2023/04/03 14:37:32;;;;;;;0.43;0.30;;;;;;;18.01;42.44;102874.63;20751988;28;20041;-84
2023/04/03 14:47:45;;;;;;;0.40;0.20;;;;;;;17.66;42.18;102808.31;20750880;28;20215;-84
2023/04/03 14:57:47;;;;;;;0.52;0.30;;;;;;;17.97;42.40;102849.66;20745388;28;20495;-84
2023/04/03 15:07:56;;;;;;;0.40;0.40;;;;;;;17.95;42.34;102848.00;20747379;28;20046;-84
2023/04/03 15:17:58;;;;;;;0.50;0.30;;;;;;;18.00;42.33;102848.59;20742833;28;20065;-83
2023/04/03 15:28:00;;;;;;;0.75;0.35;;;;;;;18.01;42.00;102842.28;20743552;28;20188;-86
2023/04/03 15:38:02;;;;;;;1.60;0.40;;;;;;;17.97;42.15;102820.03;20727775;28;20125;-85
2023/04/03 15:48:05;;;;;;;0.88;0.47;;;;;;;17.94;42.13;102804.03;20731224;28;20050;-87
2023/04/03 15:58:07;;;;;;;0.40;0.20;;;;;;;18.00;42.14;102815.41;20721442;28;20050;-83
2023/04/03 16:08:09;;;;;;;0.57;0.40;;;;;;;17.86;42.16;102794.66;20727673;28;20112;-84
2023/04/03 16:18:12;;;;;;;0.60;0.40;;;;;;;17.95;42.30;102815.66;20717193;28;20401;-84
2023/04/03 16:28:14;;;;;;;0.57;0.35;;;;;;;17.98;42.23;102815.47;20714296;28;20044;-89
2023/04/03 16:38:18;;;;;;;0.40;0.30;;;;;;;17.96;42.46;102810.19;20704683;28;20135;-85
2023/04/03 16:48:20;;;;;;;0.30;0.20;;;;;;;17.96;42.47;102812.88;20707127;28;20046;-84
2023/04/03 16:58:22;;;;;;;0.98;0.35;;;;;;;17.93;42.47;102812.19;20728106;28;20057;-83
2023/04/03 17:08:25;;;;;;;0.90;0.40;;;;;;;17.94;42.61;102813.94;20755841;28;20136;-83
2023/04/03 17:18:27;;;;;;;0.70;0.60;;;;;;;17.86;41.87;102805.44;20754341;28;20047;-86
2023/04/03 17:28:28;;;;;;;0.60;0.45;;;;;;;17.85;41.87;102815.31;20732067;28;20049;-96
2023/04/03 17:38:32;;;;;;;1.98;0.77;;;;;;;17.77;41.50;102806.81;20737432;28;20045;-79
2023/04/03 17:48:36;;;;;;;1.00;0.52;;;;;;;17.78;41.19;102816.63;20724282;28;20042;-81
2023/04/03 17:58:38;;;;;;;0.90;0.70;;;;;;;17.60;41.23;102791.63;20749513;28;20049;-81
2023/04/03 18:08:43;;;;;;;1.73;0.63;;;;;;;17.72;41.08;102820.56;20747309;28;20124;-81
2023/04/03 18:18:44;;;;;;;;;;;;;;;17.72;41.02;102822.38;20736074;28;20085;-81
2023/04/03 18:28:54;;;;;;;0.85;0.52;;;;;;;17.66;40.71;102828.97;20741068;28;19922;-81
2023/04/03 18:38:55;;;;;;;1.38;0.68;;;;;;;17.63;40.90;102831.84;20744707;28;20121;-81
2023/04/03 18:48:58;;;;;;;1.55;0.60;;;;;;;17.58;40.68;102831.25;20745618;28;20117;-81
2023/04/03 18:59:00;;;;;;;0.80;0.50;;;;;;;17.60;40.74;102832.91;20746267;28;20050;-81
2023/04/03 19:09:04;;;;;;;0.82;0.43;;;;;;;17.60;40.66;102842.81;20737597;28;20050;-81
2023/04/03 19:19:06;;;;;;;1.47;0.70;;;;;;;17.49;40.63;102829.97;20747493;28;20549;-81
2023/04/03 19:29:08;;;;;;;2.03;0.60;;;;;;;17.44;40.63;102824.81;20745817;28;20092;-81
2023/04/03 19:39:10;;;;;;;0.75;0.40;;;;;;;17.56;40.52;102852.91;20735572;28;20037;-81
2023/04/03 19:49:16;;;;;;;1.35;0.60;;;;;;;17.44;40.65;102840.97;20745857;28;20041;-81
2023/04/03 19:59:18;;;;;;;1.10;0.60;;;;;;;17.41;40.49;102841.16;20741722;28;20045;-81
2023/04/03 20:09:21;;;;;;;1.15;0.50;;;;;;;17.44;40.67;102842.78;20740174;28;20068;-81
2023/04/03 20:19:25;;;;;;;0.77;0.52;;;;;;;17.49;40.55;102840.75;20740668;28;20040;-81
2023/04/03 20:29:27;;;;;;;0.80;0.38;;;;;;;17.51;40.58;102834.28;20739247;28;20557;-81
2023/04/03 20:39:29;;;;;;;0.90;0.60;;;;;;;17.48;40.62;102829.09;20735336;28;20034;-81
2023/04/03 20:49:31;;;;;;;0.93;0.60;;;;;;;17.49;40.75;102846.13;20738639;28;20053;-81
2023/04/03 20:59:33;;;;;;;1.13;0.60;;;;;;;17.33;40.65;102803.03;20740815;28;20038;-81
2023/04/03 21:10:13;;;;;;;0.98;0.60;;;;;;;17.46;40.81;102822.91;20739054;28;20038;-81
2023/04/03 21:20:15;;;;;;;0.70;0.50;;;;;;;17.45;40.80;102815.78;20738547;28;20133;-81
2023/04/03 21:30:17;;;;;;;1.40;0.75;;;;;;;17.44;40.87;102811.38;20738055;28;20050;-81
2023/04/03 21:40:19;;;;;;;0.80;0.50;;;;;;;17.43;40.80;102806.94;20739396;28;20050;-81
2023/04/03 21:50:20;;;;;;;0.88;0.60;;;;;;;17.33;40.83;102792.25;20732217;28;20061;-81
2023/04/03 22:00:22;;;;;;;1.45;0.70;;;;;;;17.42;40.98;102802.50;20751728;28;20046;-81
2023/04/03 22:10:25;;;;;;;1.05;0.60;;;;;;;17.42;40.96;102802.50;20744804;28;20042;-81
2023/04/03 22:20:26;;;;;;;0.55;0.45;;;;;;;17.25;41.05;102780.09;20743284;28;20046;-81
2023/04/03 22:30:28;;;;;;;0.57;0.55;;;;;;;17.39;41.02;102811.63;20748990;28;20125;-81
2023/04/03 22:40:30;;;;;;;0.43;0.30;;;;;;;17.09;41.17;102757.69;20764013;28;20069;-81
2023/04/03 22:50:35;;;;;;;1.55;0.70;;;;;;;17.39;40.99;102821.53;20748509;28;20413;-81
2023/04/03 23:00:37;;;;;;;1.45;0.55;;;;;;;17.39;41.08;102810.75;20745029;28;20105;-81
2023/04/03 23:10:40;;;;;;;0.90;0.70;;;;;;;17.34;41.06;102785.94;20740342;28;20482;-81
2023/04/03 23:20:42;;;;;;;0.75;0.50;;;;;;;17.36;41.03;102798.31;20745419;28;20064;-81
2023/04/03 23:30:45;;;;;;;1.05;0.70;;;;;;;17.35;41.03;102811.88;20744157;28;20066;-81
2023/04/03 23:40:47;;;;;;;0.80;0.63;;;;;;;17.35;41.19;102803.81;20744590;28;20046;-81
2023/04/03 23:50:48;;;;;;;1.08;0.55;;;;;;;17.18;41.25;102773.31;20743124;28;20394;-81
